»·PEaware :: N5729R KCRQ-KSNA

N5729R :: KCRQ-KSNA

FLIGHT INFORMATION

Flight Status: Arrived
Operator: Privately registered:
United States
More flights under this callsign
Pilot: Anonymous 8799 (8799)
Aircraft: CESSNA 172 SKYHAWK
(C172)
More flights by this aircraft type
Origin: KCRQ McClellan-Palomar
United States
Destination: KSNA John Wayne-Orange Co
United States
More flights between these airports :: More routes between these airports
Route: OCN V23 SLI
File this flight plan on PilotEdge
Remarks: TEC
Altitude:
(Current/Filed)
6,000ft
Speed:
(Current/Filed)
120kts
Departed: 14-Apr-18 10:56 AM
Arrived: 14-Apr-18 11:26 AM
Distance/Time
Traveled:
44nm/0:30
Distance/Time
To Go:
Arrived

Flight Plot

Page will automatically refresh every two minutes.


Map Options




Map Legend


Flown Route
Filed Route
Departure Airport
Arrival Airport
Navaid (VOR, NDB)
Fix

Horizontal Profiles

Position Reports

Time Latitude Longitude Heading Altitude Ground
Speed
14-Apr-18 10:16 33.671521 -117.867198 26 60ft 0kts
14-Apr-18 10:17 33.671521 -117.867198 26 60ft 0kts
14-Apr-18 10:18 33.671772 -117.867296 308 60ft 2kts
14-Apr-18 10:19 33.671775 -117.867300 310 60ft 0kts
14-Apr-18 10:20 33.671775 -117.867300 310 60ft 0kts
14-Apr-18 10:21 33.671775 -117.867300 310 60ft 0kts
14-Apr-18 10:22 33.671775 -117.867300 310 60ft 0kts
14-Apr-18 10:23 33.671775 -117.867300 310 60ft 0kts
14-Apr-18 10:24 33.671775 -117.867300 310 60ft 0kts
14-Apr-18 10:25 33.671775 -117.867300 310 60ft 0kts
14-Apr-18 10:26 33.671775 -117.867300 310 60ft 0kts
14-Apr-18 10:27 33.671775 -117.867300 310 60ft 0kts
14-Apr-18 10:28 33.671775 -117.867300 310 60ft 0kts
14-Apr-18 10:29 33.671775 -117.867300 310 60ft 0kts
14-Apr-18 10:33 33.672218 -117.873702 206 60ft 0kts
14-Apr-18 10:34 33.672218 -117.873702 206 60ft 0kts
14-Apr-18 10:35 33.672077 -117.873673 130 60ft 0kts
14-Apr-18 10:36 33.672077 -117.873673 130 60ft 0kts
14-Apr-18 10:37 33.672077 -117.873673 130 60ft 0kts
14-Apr-18 10:38 33.125833 -117.283286 80 335ft 0kts
14-Apr-18 10:39 33.125834 -117.283285 79 335ft 0kts
14-Apr-18 10:40 33.125834 -117.283284 79 335ft 0kts
14-Apr-18 10:41 33.126426 -117.283207 352 335ft 0kts
14-Apr-18 10:42 33.126426 -117.283207 352 335ft 0kts
14-Apr-18 10:43 33.126426 -117.283207 352 335ft 0kts
14-Apr-18 10:44 33.126426 -117.283207 352 335ft 0kts
14-Apr-18 10:45 33.126426 -117.283207 352 335ft 0kts
14-Apr-18 10:46 33.126426 -117.283207 352 335ft 0kts
14-Apr-18 10:47 33.126426 -117.283207 352 335ft 0kts
14-Apr-18 10:48 33.127280 -117.281137 79 335ft 13kts
14-Apr-18 10:49 33.127903 -117.277181 77 335ft 12kts
14-Apr-18 10:50 33.128506 -117.273386 80 335ft 10kts
14-Apr-18 10:51 33.128610 -117.272935 46 335ft 0kts
14-Apr-18 10:52 33.128549 -117.274262 138 335ft 5kts
14-Apr-18 10:53 33.128596 -117.272867 45 335ft 1kts
14-Apr-18 10:54 33.129441 -117.272736 256 335ft 0kts
14-Apr-18 10:55 33.128007 -117.283042 264 549ft 78kts
14-Apr-18 10:56 33.123587 -117.313710 259 1004ft 103kts
14-Apr-18 10:57 33.118324 -117.348127 259 1506ft 106kts
14-Apr-18 10:58 33.113054 -117.382599 259 2055ft 102kts
14-Apr-18 10:59 33.107806 -117.415343 259 2653ft 98kts
14-Apr-18 11:00 33.118613 -117.435917 8 3234ft 92kts
14-Apr-18 11:01 33.143453 -117.431321 6 3832ft 89kts
14-Apr-18 11:02 33.167543 -117.427794 5 4432ft 85kts
14-Apr-18 11:03 33.190605 -117.424792 4 5029ft 81kts
14-Apr-18 11:04 33.212456 -117.422072 4 5560ft 80kts
14-Apr-18 11:05 33.235759 -117.419185 359 5965ft 87kts
14-Apr-18 11:06 33.255284 -117.436840 318 6277ft 100kts
14-Apr-18 11:07 33.279644 -117.464227 317 6027ft 121kts
14-Apr-18 11:08 33.303646 -117.491836 316 6024ft 120kts
14-Apr-18 11:09 33.327860 -117.519695 316 6009ft 120kts
14-Apr-18 11:10 33.351930 -117.547712 316 5987ft 121kts
14-Apr-18 11:11 33.375977 -117.575770 316 5987ft 120kts
14-Apr-18 11:12 33.399889 -117.603695 316 5987ft 120kts
14-Apr-18 11:13 33.423726 -117.631552 316 5988ft 119kts
14-Apr-18 11:14 33.446735 -117.658464 315 5990ft 119kts
14-Apr-18 11:15 33.475127 -117.680785 331 5691ft 133kts
14-Apr-18 11:16 33.507950 -117.700684 331 4993ft 132kts
14-Apr-18 11:17 33.540673 -117.720223 331 4295ft 132kts
14-Apr-18 11:18 33.572491 -117.738952 332 3789ft 126kts
14-Apr-18 11:19 33.605010 -117.757950 332 3091ft 132kts
14-Apr-18 11:20 33.637908 -117.777286 332 2393ft 132kts
14-Apr-18 11:21 33.670891 -117.796858 332 1393ft 132kts
14-Apr-18 11:22 33.700432 -117.817711 327 798ft 102kts
14-Apr-18 11:23 33.698478 -117.848028 237 393ft 100kts
14-Apr-18 11:24 33.679048 -117.866644 210 64ft 72kts
14-Apr-18 11:25 33.674242 -117.871026 265 60ft 0kts
14-Apr-18 11:26 33.674242 -117.871038 271 60ft 1kts
14-Apr-18 11:27 33.675744 -117.871374 223 60ft 2kts
14-Apr-18 11:28 33.675742 -117.871376 222 60ft 0kts
14-Apr-18 11:29 33.675742 -117.871376 222 60ft 0kts
14-Apr-18 11:30 33.675742 -117.871376 222 60ft 0kts
14-Apr-18 11:31 33.675742 -117.871376 222 60ft 0kts
14-Apr-18 11:32 33.675742 -117.871376 222 60ft 0kts

Navigation Log

Ident Type
1. KCRQ Airport
2. OCN Navaid
3. KELPS Fix
4. DANAH Fix
5. KRAUZ Fix
6. BALBO Fix
7. MIDDS Fix
8. SLI Navaid
9. KSNA Airport